Time;durP1;ratioP1;P1;durP2;ratioP2;P2;SDS_P1;SDS_P2;PMS_P1;PMS_P2;Temp;Humidity;BMP_temperature;BMP_pressure;BME280_temperature;BME280_humidity;BME280_pressure;Samples;Min_cycle;Max_cycle;Signal;HPM_P1;HPM_P2
2023/07/23 00:00:39;;;;;;;6.20;3.40;;;21.60;91.20;;;;;;5082815;28;20045;-62
2023/07/23 00:03:04;;;;;;;7.78;3.60;;;21.70;90.70;;;;;;5072548;28;20490;-65
2023/07/23 00:05:31;;;;;;;6.00;3.28;;;;;;;;;;5090585;28;20044;-65
2023/07/23 00:07:57;;;;;;;5.82;3.33;;;21.80;91.30;;;;;;5088943;28;20036;-69
2023/07/23 00:10:24;;;;;;;6.35;3.58;;;21.80;91.30;;;;;;5091352;28;20123;-67
2023/07/23 00:12:49;;;;;;;6.53;3.42;;;21.70;91.30;;;;;;5092850;28;20371;-65
2023/07/23 00:15:15;;;;;;;4.97;3.15;;;21.80;91.40;;;;;;5090337;28;20077;-68
2023/07/23 00:17:41;;;;;;;6.82;3.30;;;21.80;91.30;;;;;;5090222;28;20370;-67
2023/07/23 00:20:10;;;;;;;5.95;3.25;;;21.90;91.30;;;;;;5089604;28;20044;-66
2023/07/23 00:22:37;;;;;;;6.65;3.17;;;21.80;91.20;;;;;;5072180;28;20041;-67
2023/07/23 00:25:03;;;;;;;6.40;3.20;;;;;;;;;;5081955;28;20482;-70
2023/07/23 00:27:29;;;;;;;5.80;3.05;;;21.70;91.20;;;;;;5087980;28;20040;-69
2023/07/23 00:29:56;;;;;;;5.18;3.10;;;21.60;91.20;;;;;;5090305;28;20492;-66
2023/07/23 00:32:21;;;;;;;5.80;3.10;;;21.80;91.20;;;;;;5089796;28;20505;-66
2023/07/23 00:34:47;;;;;;;7.78;3.38;;;21.70;91.20;;;;;;5091569;28;20040;-67
2023/07/23 00:37:13;;;;;;;4.60;2.80;;;21.80;91.30;;;;;;5087052;28;20044;-69
2023/07/23 00:39:38;;;;;;;6.10;2.90;;;21.80;91.20;;;;;;5073378;28;20158;-66
2023/07/23 00:42:04;;;;;;;7.63;3.50;;;21.90;91.30;;;;;;5091020;28;20397;-69
2023/07/23 00:44:30;;;;;;;6.03;3.35;;;21.70;90.70;;;;;;5088915;28;20512;-69
2023/07/23 00:46:57;;;;;;;5.82;3.42;;;21.70;91.20;;;;;;5088531;28;20468;-68
2023/07/23 00:49:22;;;;;;;6.82;3.63;;;21.70;91.20;;;;;;5091272;28;20040;-67
2023/07/23 00:51:48;;;;;;;7.95;3.75;;;21.80;91.20;;;;;;5091729;28;20131;-69
2023/07/23 00:54:14;;;;;;;5.85;3.08;;;;;;;;;;5091782;28;20052;-68
2023/07/23 00:56:41;;;;;;;6.93;3.65;;;21.60;91.10;;;;;;5058014;28;20044;-71
2023/07/23 00:59:07;;;;;;;6.60;3.30;;;21.50;91.10;;;;;;5088124;28;20044;-65
2023/07/23 01:01:33;;;;;;;7.72;3.50;;;21.70;91.10;;;;;;5090435;28;20039;-65
2023/07/23 01:03:58;;;;;;;6.80;3.92;;;21.60;91.10;;;;;;5093867;28;20037;-65
2023/07/23 01:06:24;;;;;;;5.28;3.30;;;21.60;91.20;;;;;;5092666;28;20059;-67
2023/07/23 01:08:50;;;;;;;8.00;3.35;;;21.50;91.20;;;;;;5091226;28;20050;-66
2023/07/23 01:11:16;;;;;;;6.72;3.55;;;21.60;91.20;;;;;;5092524;28;20044;-69
2023/07/23 01:13:41;;;;;;;5.70;3.53;;;21.50;91.20;;;;;;5063701;28;20410;-67
2023/07/23 01:16:07;;;;;;;5.85;3.50;;;21.50;91.10;;;;;;5079873;28;20036;-65
2023/07/23 01:18:36;;;;;;;6.93;3.65;;;21.50;91.20;;;;;;5090288;28;20578;-68
2023/07/23 01:21:01;;;;;;;6.03;3.40;;;21.60;91.20;;;;;;5094433;28;20040;-69
2023/07/23 01:23:28;;;;;;;6.53;3.95;;;;;;;;;;5092056;28;20055;-68
2023/07/23 01:25:53;;;;;;;6.00;3.53;;;21.60;91.20;;;;;;5095359;28;20090;-65
2023/07/23 01:28:19;;;;;;;5.53;3.50;;;21.50;91.20;;;;;;5091090;28;20083;-66
2023/07/23 01:30:45;;;;;;;6.35;3.38;;;21.60;91.20;;;;;;5093333;28;20074;-69
2023/07/23 01:33:11;;;;;;;6.35;3.63;;;21.60;91.20;;;;;;5095446;28;20371;-66
2023/07/23 01:35:37;;;;;;;6.72;3.50;;;21.60;91.30;;;;;;5090871;28;20051;-68
2023/07/23 01:38:02;;;;;;;6.45;3.60;;;21.50;91.30;;;;;;5091008;28;20040;-67
2023/07/23 01:40:28;;;;;;;7.97;3.78;;;21.50;91.20;;;;;;5089492;28;20044;-66
2023/07/23 01:42:54;;;;;;;6.57;3.60;;;21.60;91.30;;;;;;5093900;28;20055;-66
2023/07/23 01:45:20;;;;;;;7.40;4.18;;;21.50;91.30;;;;;;5090135;28;20089;-66
2023/07/23 01:47:45;;;;;;;7.65;4.10;;;21.60;91.30;;;;;;5079317;28;20047;-68
2023/07/23 01:50:12;;;;;;;6.53;3.80;;;;;;;;;;5089765;28;20186;-69
2023/07/23 01:52:37;;;;;;;7.57;3.83;;;21.60;91.30;;;;;;5094089;28;20050;-66
2023/07/23 01:55:04;;;;;;;6.88;3.25;;;21.60;91.20;;;;;;5089301;28;20123;-65
2023/07/23 01:57:30;;;;;;;7.40;4.28;;;;;;;;;;5093118;28;20055;-64
2023/07/23 01:59:56;;;;;;;6.30;3.63;;;21.50;90.40;;;;;;5090560;28;20040;-65
2023/07/23 02:02:21;;;;;;;7.88;3.42;;;21.40;91.30;;;;;;5088171;28;20409;-69
2023/07/23 02:04:47;;;;;;;7.15;4.10;;;21.50;90.70;;;;;;5091827;28;20061;-65
2023/07/23 02:07:14;;;;;;;7.28;3.72;;;21.60;91.30;;;;;;5090604;28;20044;-65
2023/07/23 02:09:40;;;;;;;6.40;3.65;;;21.40;91.30;;;;;;5090155;28;20036;-65
2023/07/23 02:12:06;;;;;;;8.30;3.42;;;21.40;91.30;;;;;;5093291;28;20052;-69
2023/07/23 02:14:32;;;;;;;6.72;3.90;;;21.40;91.30;;;;;;5093279;28;20436;-67
2023/07/23 02:16:58;;;;;;;6.07;3.83;;;21.40;91.10;;;;;;5094411;28;20051;-68
2023/07/23 02:19:24;;;;;;;7.35;3.30;;;;;;;;;;5091136;28;20047;-66
2023/07/23 02:21:50;;;;;;;6.70;3.67;;;21.40;91.40;;;;;;5092590;28;20076;-67
2023/07/23 02:24:15;;;;;;;6.60;3.58;;;21.40;91.40;;;;;;5091638;28;20098;-66
2023/07/23 02:26:41;;;;;;;5.90;3.53;;;;;;;;;;5091554;28;20374;-64
2023/07/23 02:29:07;;;;;;;5.75;3.53;;;21.40;91.40;;;;;;5093152;28;20040;-67
2023/07/23 02:31:33;;;;;;;6.47;3.67;;;;;;;;;;5089873;28;20055;-66
2023/07/23 02:33:59;;;;;;;6.68;3.42;;;21.40;91.40;;;;;;5092908;28;20490;-69
2023/07/23 02:36:25;;;;;;;6.22;3.35;;;21.50;91.40;;;;;;5090730;28;20217;-65
2023/07/23 02:38:51;;;;;;;6.10;3.42;;;21.20;91.30;;;;;;5081389;28;20059;-69
2023/07/23 02:41:16;;;;;;;6.10;3.45;;;21.60;90.10;;;;;;5078859;28;20070;-64
2023/07/23 02:43:42;;;;;;;7.10;3.50;;;21.50;91.40;;;;;;5090992;28;20093;-67
2023/07/23 02:46:08;;;;;;;6.20;3.40;;;21.30;91.40;;;;;;5094056;28;20083;-66
2023/07/23 02:48:34;;;;;;;7.32;3.60;;;;;;;;;;5090203;28;20051;-66
2023/07/23 02:51:00;;;;;;;7.32;3.33;;;21.50;91.50;;;;;;5089576;28;20105;-66
2023/07/23 02:53:26;;;;;;;5.85;3.63;;;;;;;;;;5090032;28;20052;-66
2023/07/23 02:55:52;;;;;;;6.80;3.70;;;21.40;91.50;;;;;;5073396;28;20044;-66
2023/07/23 02:58:18;;;;;;;6.18;3.38;;;;;;;;;;5073191;28;20053;-66
2023/07/23 03:00:44;;;;;;;5.82;3.25;;;;;;;;;;5085231;28;20093;-66
2023/07/23 03:03:10;;;;;;;5.72;3.13;;;21.40;91.50;;;;;;5072915;28;20417;-69
2023/07/23 03:05:36;;;;;;;5.88;3.42;;;21.60;91.60;;;;;;5074669;28;20127;-68
2023/07/23 03:08:02;;;;;;;6.45;3.28;;;21.50;91.50;;;;;;5092483;28;20040;-67
2023/07/23 03:10:29;;;;;;;5.35;3.45;;;21.50;91.50;;;;;;5087205;28;20040;-65
2023/07/23 03:12:55;;;;;;;6.45;3.47;;;;;;;;;;5049129;28;20083;-67
2023/07/23 03:15:21;;;;;;;4.95;2.95;;;21.50;91.50;;;;;;5051198;28;20580;-68
2023/07/23 03:17:47;;;;;;;7.07;3.60;;;21.60;91.60;;;;;;5075274;28;20052;-66
2023/07/23 03:20:14;;;;;;;5.88;3.25;;;21.60;91.50;;;;;;5073781;28;20398;-66
2023/07/23 03:22:40;;;;;;;4.85;3.10;;;21.50;91.60;;;;;;5071099;28;20060;-68
2023/07/23 03:25:06;;;;;;;7.22;3.25;;;21.60;91.50;;;;;;5074174;28;20056;-66
2023/07/23 03:27:32;;;;;;;5.85;3.33;;;21.50;91.50;;;;;;5074748;28;20405;-69
2023/07/23 03:29:57;;;;;;;5.75;3.63;;;21.60;91.50;;;;;;5073870;28;20440;-65
2023/07/23 03:32:23;;;;;;;6.63;3.45;;;21.40;91.50;;;;;;5087343;28;20048;-66
2023/07/23 03:34:49;;;;;;;5.65;3.35;;;;;;;;;;5072803;28;20078;-65
2023/07/23 03:37:16;;;;;;;6.10;3.45;;;21.60;91.60;;;;;;5073267;28;20128;-66
2023/07/23 03:39:42;;;;;;;6.22;3.53;;;21.50;91.50;;;;;;5073329;28;20048;-64
2023/07/23 03:42:07;;;;;;;5.68;3.20;;;21.40;91.50;;;;;;5088584;28;20512;-61
2023/07/23 03:44:33;;;;;;;5.82;3.47;;;21.50;91.60;;;;;;5087028;28;20055;-62
2023/07/23 03:47:04;;;;;;;5.63;3.38;;;21.50;91.60;;;;;;5076509;28;20040;-67
2023/07/23 03:49:30;;;;;;;5.55;3.35;;;21.40;91.50;;;;;;5091345;28;20054;-66
2023/07/23 03:51:56;;;;;;;7.05;3.50;;;;;;;;;;5088801;28;20118;-68
2023/07/23 03:54:22;;;;;;;7.32;3.47;;;;;;;;;;5089113;28;20044;-63
2023/07/23 03:56:48;;;;;;;6.80;3.40;;;;;;;;;;5092480;28;20478;-64
2023/07/23 03:59:14;;;;;;;5.60;3.30;;;;;;;;;;5091942;28;20408;-64
2023/07/23 04:01:40;;;;;;;5.72;3.58;;;21.50;91.60;;;;;;5084325;28;20047;-66
2023/07/23 04:04:06;;;;;;;6.65;3.45;;;21.40;91.60;;;;;;5088068;28;20044;-69
2023/07/23 04:06:32;;;;;;;6.45;3.45;;;21.40;91.50;;;;;;5092759;28;20122;-71
2023/07/23 04:08:58;;;;;;;6.40;3.58;;;;;;;;;;5091851;28;20044;-64
2023/07/23 04:11:23;;;;;;;5.95;3.35;;;21.50;91.60;;;;;;5089836;28;20132;-68
2023/07/23 04:13:50;;;;;;;5.80;3.42;;;21.60;91.70;;;;;;5085973;28;20115;-68
2023/07/23 04:16:15;;;;;;;6.68;3.38;;;21.60;91.60;;;;;;5091773;28;20412;-67
2023/07/23 04:18:46;;;;;;;7.55;3.40;;;21.40;91.60;;;;;;5086964;28;20115;-69
2023/07/23 04:21:13;;;;;;;5.93;3.47;;;21.40;91.60;;;;;;5077947;28;20087;-64
2023/07/23 04:23:38;;;;;;;7.78;4.03;;;21.30;91.60;;;;;;5089507;28;20048;-69
2023/07/23 04:26:04;;;;;;;6.47;3.40;;;21.40;91.60;;;;;;5092208;28;20721;-61
2023/07/23 04:28:30;;;;;;;6.28;3.42;;;;;;;;;;5095590;28;20443;-63
2023/07/23 04:30:56;;;;;;;6.43;3.45;;;21.40;91.60;;;;;;5094318;28;20502;-65
2023/07/23 04:33:22;;;;;;;5.55;3.30;;;;;;;;;;5093969;28;20036;-61
2023/07/23 04:35:48;;;;;;;5.78;3.25;;;21.40;91.60;;;;;;5089388;28;20048;-64
2023/07/23 04:38:14;;;;;;;6.22;3.55;;;21.20;90.70;;;;;;5076382;28;20056;-68
2023/07/23 04:40:39;;;;;;;6.18;3.70;;;21.60;91.70;;;;;;5094887;28;20047;-70
2023/07/23 04:43:05;;;;;;;7.90;3.28;;;21.30;91.60;;;;;;5091660;28;20058;-64
2023/07/23 04:45:31;;;;;;;5.88;3.70;;;21.40;91.60;;;;;;5093464;28;20173;-64
2023/07/23 04:47:56;;;;;;;6.38;3.75;;;21.30;91.60;;;;;;5094734;28;20192;-66
2023/07/23 04:50:22;;;;;;;6.60;3.55;;;21.50;91.70;;;;;;5095913;28;20044;-66
2023/07/23 04:52:48;;;;;;;6.15;3.47;;;21.30;91.70;;;;;;5088108;28;20166;-67
2023/07/23 04:55:14;;;;;;;6.85;3.70;;;;;;;;;;5087080;28;20124;-66
2023/07/23 04:57:40;;;;;;;6.15;3.50;;;21.40;91.70;;;;;;5091601;28;20527;-64
2023/07/23 05:00:07;;;;;;;6.35;3.65;;;21.50;91.70;;;;;;5096155;28;20075;-61
2023/07/23 05:02:33;;;;;;;7.25;3.75;;;21.50;91.80;;;;;;5095115;28;20040;-63
2023/07/23 05:04:58;;;;;;;5.75;3.42;;;21.40;91.70;;;;;;5090220;28;20040;-69
2023/07/23 05:07:24;;;;;;;6.18;3.83;;;21.30;91.60;;;;;;5094761;28;20054;-68
2023/07/23 05:09:50;;;;;;;6.18;3.55;;;21.20;91.60;;;;;;5089228;28;20091;-63
2023/07/23 05:12:16;;;;;;;6.55;3.35;;;21.50;91.70;;;;;;5086158;28;20469;-70
2023/07/23 05:14:44;;;;;;;6.43;3.33;;;21.40;91.60;;;;;;5089426;28;20079;-66
2023/07/23 05:17:11;;;;;;;9.30;4.00;;;;;;;;;;5093954;28;20468;-66
2023/07/23 05:19:37;;;;;;;6.82;3.60;;;21.40;91.80;;;;;;5095807;28;20048;-71
2023/07/23 05:22:02;;;;;;;7.25;3.67;;;21.60;91.80;;;;;;5092419;28;20130;-63
2023/07/23 05:24:28;;;;;;;6.18;3.58;;;21.60;91.80;;;;;;5091727;28;20438;-60
2023/07/23 05:26:54;;;;;;;6.72;3.53;;;;;;;;;;5087285;28;20048;-65
2023/07/23 05:29:20;;;;;;;5.95;3.50;;;21.50;91.70;;;;;;5082707;28;20040;-67
2023/07/23 05:31:46;;;;;;;6.25;3.63;;;21.50;91.70;;;;;;5093601;28;20040;-65
2023/07/23 05:34:12;;;;;;;5.18;3.38;;;21.40;91.70;;;;;;5092802;28;20115;-68
2023/07/23 05:36:37;;;;;;;6.55;3.30;;;21.50;91.70;;;;;;5094205;28;20047;-64
2023/07/23 05:39:03;;;;;;;5.88;3.60;;;21.20;91.80;;;;;;5089060;28;20035;-64
2023/07/23 05:41:29;;;;;;;5.53;3.60;;;21.30;91.70;;;;;;5094627;28;20052;-68
2023/07/23 05:43:55;;;;;;;6.22;3.30;;;21.40;91.80;;;;;;5092860;28;20099;-65
2023/07/23 05:46:20;;;;;;;5.90;3.38;;;21.60;91.80;;;;;;5091822;28;20493;-63
2023/07/23 05:48:48;;;;;;;6.68;3.85;;;21.20;91.70;;;;;;5093286;28;20126;-65
2023/07/23 05:51:14;;;;;;;6.95;3.55;;;;;;;;;;5095060;28;20048;-69
2023/07/23 05:53:40;;;;;;;7.32;3.65;;;21.40;91.80;;;;;;5093206;28;20378;-66
2023/07/23 05:56:05;;;;;;;7.03;3.50;;;21.50;91.80;;;;;;5074859;28;20134;-64
2023/07/23 05:58:31;;;;;;;6.43;3.38;;;21.50;91.80;;;;;;5091348;28;20581;-65
2023/07/23 06:00:57;;;;;;;6.82;3.47;;;;;;;;;;5092140;28;20074;-68
2023/07/23 06:03:23;;;;;;;6.78;3.45;;;21.50;91.80;;;;;;5092716;28;20036;-66
2023/07/23 06:05:49;;;;;;;5.50;3.33;;;;;;;;;;5092568;28;20474;-64
2023/07/23 06:08:16;;;;;;;6.38;4.00;;;;;;;;;;5090470;28;20063;-65
2023/07/23 06:10:42;;;;;;;6.00;3.50;;;21.30;91.80;;;;;;5089102;28;20041;-65
2023/07/23 06:13:07;;;;;;;9.75;3.88;;;21.40;91.80;;;;;;5090772;28;20044;-68
2023/07/23 06:15:33;;;;;;;6.50;3.50;;;;;;;;;;5090104;28;20051;-65
2023/07/23 06:17:59;;;;;;;6.55;3.70;;;21.40;90.70;;;;;;5085329;28;20459;-67
2023/07/23 06:20:25;;;;;;;5.57;3.35;;;21.50;91.80;;;;;;5089637;28;20094;-65
2023/07/23 06:22:51;;;;;;;7.35;3.75;;;21.50;91.90;;;;;;5090946;28;20048;-67
2023/07/23 06:25:17;;;;;;;5.88;3.67;;;21.50;91.90;;;;;;5092541;28;20055;-66
2023/07/23 06:27:42;;;;;;;7.43;4.28;;;21.60;91.90;;;;;;5090488;28;20040;-66
2023/07/23 06:30:09;;;;;;;7.10;3.47;;;;;;;;;;5088674;28;20051;-65
2023/07/23 06:32:34;;;;;;;6.10;3.60;;;21.40;91.80;;;;;;5092097;28;20420;-68
2023/07/23 06:35:00;;;;;;;7.28;3.67;;;21.50;92.00;;;;;;5071071;28;20046;-69
2023/07/23 06:37:26;;;;;;;6.22;3.67;;;21.60;92.00;;;;;;5089953;28;20393;-69
2023/07/23 06:39:52;;;;;;;7.68;3.85;;;21.40;91.90;;;;;;5089706;28;20107;-66
2023/07/23 06:42:18;;;;;;;6.18;3.80;;;21.50;92.00;;;;;;5091926;28;20040;-65
2023/07/23 06:44:44;;;;;;;6.20;4.00;;;21.50;92.10;;;;;;5090720;28;20077;-68
2023/07/23 06:47:11;;;;;;;6.22;4.10;;;21.60;91.30;;;;;;5088925;28;20051;-67
2023/07/23 06:49:38;;;;;;;7.18;3.75;;;;;;;;;;5089877;28;20123;-64
2023/07/23 06:52:04;;;;;;;6.05;3.75;;;21.40;92.00;;;;;;5087102;28;20083;-66
2023/07/23 06:54:31;;;;;;;6.90;3.88;;;21.60;90.80;;;;;;5091733;28;20055;-68
2023/07/23 06:56:57;;;;;;;7.47;4.10;;;21.40;92.00;;;;;;5086773;28;20070;-66
2023/07/23 06:59:23;;;;;;;9.65;4.18;;;21.70;92.10;;;;;;5073475;28;20052;-66
2023/07/23 07:01:50;;;;;;;6.22;3.58;;;21.40;92.00;;;;;;5089593;28;20047;-68
2023/07/23 07:04:16;;;;;;;6.15;3.63;;;21.60;92.00;;;;;;5091770;28;20055;-65
2023/07/23 07:06:42;;;;;;;6.28;3.95;;;21.50;92.00;;;;;;5090716;28;20040;-69
2023/07/23 07:09:08;;;;;;;7.97;3.80;;;21.60;92.10;;;;;;5080573;28;20536;-67
2023/07/23 07:11:34;;;;;;;7.03;4.22;;;21.60;92.10;;;;;;5090431;28;20044;-68
2023/07/23 07:14:00;;;;;;;7.20;3.85;;;;;;;;;;5088813;28;20036;-68
2023/07/23 07:16:26;;;;;;;6.55;4.03;;;;;;;;;;5087158;28;20047;-66
2023/07/23 07:18:53;;;;;;;7.97;4.10;;;21.50;91.00;;;;;;5090362;28;20397;-64
2023/07/23 07:21:19;;;;;;;6.50;3.70;;;21.60;92.30;;;;;;5083730;28;20444;-68
2023/07/23 07:23:44;;;;;;;7.82;4.38;;;21.60;92.30;;;;;;5090264;28;20094;-65
2023/07/23 07:26:10;;;;;;;6.93;3.60;;;;;;;;;;5083523;28;20536;-69
2023/07/23 07:28:36;;;;;;;5.88;4.03;;;21.70;92.30;;;;;;5087243;28;20048;-66
2023/07/23 07:31:03;;;;;;;6.72;4.57;;;21.70;92.30;;;;;;5088279;28;20047;-67
2023/07/23 07:33:29;;;;;;;7.35;3.97;;;21.60;92.30;;;;;;5089396;28;20044;-69
2023/07/23 07:35:56;;;;;;;6.55;4.50;;;21.70;92.20;;;;;;5090817;28;20101;-62
2023/07/23 07:38:23;;;;;;;8.07;4.57;;;21.70;92.30;;;;;;5087529;28;20043;-66
2023/07/23 07:40:52;;;;;;;6.60;4.15;;;21.80;92.30;;;;;;5089963;28;20520;-65
2023/07/23 07:43:18;;;;;;;6.65;3.92;;;21.70;92.30;;;;;;5089805;28;20070;-63
2023/07/23 07:45:51;;;;;;;6.28;4.20;;;21.60;92.20;;;;;;5091088;28;20058;-65
2023/07/23 07:48:20;;;;;;;6.72;3.85;;;21.60;92.20;;;;;;5088269;28;20448;-65
2023/07/23 07:50:48;;;;;;;7.13;4.25;;;21.60;92.10;;;;;;5090934;28;20036;-68
2023/07/23 07:53:15;;;;;;;7.13;3.88;;;21.60;90.70;;;;;;5087319;28;20044;-67
2023/07/23 07:55:42;;;;;;;7.80;4.07;;;21.60;92.20;;;;;;5089730;28;20434;-67
2023/07/23 07:58:12;;;;;;;7.30;4.25;;;21.60;90.90;;;;;;5088768;28;20083;-65
2023/07/23 08:00:39;;;;;;;6.88;4.00;;;21.70;92.10;;;;;;5089187;28;20040;-65
2023/07/23 08:03:06;;;;;;;5.85;3.92;;;21.70;92.00;;;;;;5081665;28;20073;-68
2023/07/23 08:05:32;;;;;;;6.97;4.00;;;;;;;;;;5089714;28;20119;-69
2023/07/23 08:07:59;;;;;;;7.38;4.50;;;21.80;91.90;;;;;;5088308;28;20561;-67
2023/07/23 08:10:25;;;;;;;6.57;4.45;;;21.70;92.00;;;;;;5091007;28;20497;-63
2023/07/23 08:12:51;;;;;;;6.97;4.35;;;21.90;92.10;;;;;;5089954;28;20036;-66
2023/07/23 08:15:17;;;;;;;7.88;4.35;;;21.90;92.10;;;;;;5085934;28;20508;-70
2023/07/23 08:17:43;;;;;;;5.70;3.75;;;21.70;90.60;;;;;;5081108;28;20037;-62
2023/07/23 08:20:09;;;;;;;6.80;4.43;;;21.80;92.00;;;;;;5083416;28;20040;-62
2023/07/23 08:22:36;;;;;;;6.93;4.93;;;21.80;92.10;;;;;;5086089;28;20037;-69
2023/07/23 08:25:02;;;;;;;9.05;4.82;;;21.80;92.10;;;;;;5081358;28;20036;-69
2023/07/23 08:27:28;;;;;;;7.35;4.53;;;21.90;92.10;;;;;;5079056;28;20132;-62
2023/07/23 08:29:54;;;;;;;6.18;4.63;;;21.90;92.10;;;;;;5083128;28;20124;-70
2023/07/23 08:32:21;;;;;;;6.88;4.25;;;21.80;92.10;;;;;;5092382;28;20044;-60
2023/07/23 08:34:47;;;;;;;7.13;4.78;;;21.90;92.10;;;;;;5059322;28;20087;-64
2023/07/23 08:37:14;;;;;;;9.38;4.50;;;;;;;;;;5064554;28;20094;-66
2023/07/23 08:39:40;;;;;;;7.20;4.75;;;21.80;92.10;;;;;;5090167;28;20040;-65
2023/07/23 08:42:35;;;;;;;6.95;4.80;;;21.90;90.30;;;;;;5092547;28;20111;-63
2023/07/23 08:45:25;;;;;;;7.05;5.05;;;21.80;92.10;;;;;;5086690;28;20110;-65
2023/07/23 08:47:51;;;;;;;7.43;4.88;;;;;;;;;;5092150;28;20048;-65
2023/07/23 08:50:18;;;;;;;9.00;4.80;;;;;;;;;;5082627;28;20468;-65
2023/07/23 08:52:43;;;;;;;8.13;4.78;;;21.80;92.00;;;;;;5088877;28;20048;-61
2023/07/23 08:55:10;;;;;;;7.80;4.80;;;;;;;;;;5087041;28;20127;-61
2023/07/23 08:57:36;;;;;;;7.25;4.50;;;21.90;92.10;;;;;;5089218;28;20040;-71
2023/07/23 09:00:02;;;;;;;7.40;4.68;;;21.90;92.10;;;;;;5088922;28;20044;-60
2023/07/23 09:02:28;;;;;;;7.13;4.88;;;21.80;92.10;;;;;;5091609;28;20126;-63
2023/07/23 09:04:54;;;;;;;7.85;4.75;;;;;;;;;;5088820;28;20052;-69
2023/07/23 09:07:21;;;;;;;7.82;4.65;;;22.10;92.20;;;;;;5089970;28;20059;-67
2023/07/23 09:09:48;;;;;;;6.65;5.30;;;21.80;92.10;;;;;;5085643;28;20074;-60
2023/07/23 09:12:15;;;;;;;7.32;4.55;;;22.00;91.30;;;;;;5091811;28;20047;-60
2023/07/23 09:14:44;;;;;;;6.95;4.55;;;21.80;92.10;;;;;;5094916;28;20051;-65
2023/07/23 09:17:17;;;;;;;8.40;5.13;;;21.90;92.20;;;;;;5094808;28;20048;-65
2023/07/23 09:19:43;;;;;;;7.88;4.65;;;;;;;;;;5093145;28;20481;-65
2023/07/23 09:22:09;;;;;;;7.72;4.70;;;22.00;92.20;;;;;;5094250;28;20075;-64
2023/07/23 09:24:35;;;;;;;7.20;4.80;;;21.90;92.10;;;;;;5092515;28;20068;-63
2023/07/23 09:27:02;;;;;;;7.00;4.57;;;22.00;91.40;;;;;;5094928;28;20371;-64
2023/07/23 09:29:35;;;;;;;7.00;4.30;;;21.80;92.10;;;;;;5090998;28;20048;-61
2023/07/23 09:32:02;;;;;;;6.40;4.47;;;;;;;;;;5093354;28;20087;-63
2023/07/23 09:34:27;;;;;;;7.50;4.60;;;21.80;92.10;;;;;;5092618;28;20047;-61
2023/07/23 09:36:53;;;;;;;6.80;4.47;;;22.10;92.40;;;;;;5094170;28;20044;-63
2023/07/23 09:39:20;;;;;;;7.45;4.07;;;22.00;92.20;;;;;;5094369;28;20123;-64
2023/07/23 09:41:45;;;;;;;6.85;4.10;;;22.00;92.10;;;;;;5086569;28;20107;-69
2023/07/23 09:44:12;;;;;;;6.05;3.97;;;21.90;92.10;;;;;;5075691;28;20044;-62
2023/07/23 09:46:39;;;;;;;5.70;4.03;;;21.80;92.10;;;;;;5094063;28;20100;-62
2023/07/23 09:49:05;;;;;;;6.40;3.85;;;21.70;92.10;;;;;;5095359;28;20040;-69
2023/07/23 09:51:32;;;;;;;5.72;3.80;;;21.80;92.10;;;;;;5089461;28;20382;-66
2023/07/23 09:54:01;;;;;;;6.47;4.00;;;22.10;92.20;;;;;;5094804;28;20055;-61
2023/07/23 09:56:27;;;;;;;7.40;3.97;;;22.10;92.20;;;;;;5092040;28;20036;-61
2023/07/23 09:58:53;;;;;;;6.30;3.78;;;22.00;91.10;;;;;;5086704;28;20421;-63
2023/07/23 10:01:20;;;;;;;5.90;3.90;;;21.90;92.10;;;;;;5091832;28;20040;-62
2023/07/23 10:03:47;;;;;;;5.53;3.80;;;;;;;;;;5094422;28;20040;-62
2023/07/23 10:06:13;;;;;;;5.80;3.88;;;22.00;92.10;;;;;;5092426;28;20083;-64
2023/07/23 10:08:41;;;;;;;6.15;4.30;;;22.00;92.20;;;;;;5092670;28;20043;-63
2023/07/23 10:11:07;;;;;;;5.57;3.78;;;22.10;92.20;;;;;;5092854;28;20478;-62
2023/07/23 10:13:33;;;;;;;5.95;3.88;;;22.10;92.20;;;;;;5093388;28;20036;-61
2023/07/23 10:15:59;;;;;;;5.38;3.67;;;22.10;92.20;;;;;;5086912;28;20074;-63
2023/07/23 10:18:25;;;;;;;6.00;3.65;;;22.00;92.10;;;;;;5057836;28;20039;-61
2023/07/23 10:20:51;;;;;;;5.53;3.47;;;22.10;92.20;;;;;;5094133;28;20109;-63
2023/07/23 10:23:17;;;;;;;5.93;3.70;;;22.10;92.20;;;;;;5090392;28;20040;-62
2023/07/23 10:25:43;;;;;;;6.15;3.40;;;22.10;90.90;;;;;;5092262;28;20187;-60
2023/07/23 10:28:09;;;;;;;5.88;3.30;;;22.00;92.10;;;;;;5091092;28;20062;-60
2023/07/23 10:30:38;;;;;;;7.72;3.80;;;21.90;92.10;;;;;;5089498;28;20040;-67
2023/07/23 10:33:10;;;;;;;4.82;3.17;;;22.00;92.20;;;;;;5090245;28;20375;-65
2023/07/23 10:36:02;;;;;;;6.18;3.97;;;21.90;92.10;;;;;;5092146;28;20040;-68
2023/07/23 10:38:34;;;;;;;5.00;3.22;;;21.90;90.30;;;;;;5081672;28;20561;-65
2023/07/23 10:41:00;;;;;;;;;;;22.00;91.20;;;;;;5092835;28;20040;-62
2023/07/23 10:43:48;;;;;;;5.20;3.00;;;22.10;92.20;;;;;;5093274;28;19927;-63
2023/07/23 10:46:22;;;;;;;6.30;3.40;;;22.10;92.20;;;;;;5091529;28;20147;-63
2023/07/23 10:48:52;;;;;;;5.70;3.42;;;21.80;92.10;;;;;;5091262;28;20398;-63
2023/07/23 10:51:19;;;;;;;5.10;3.17;;;22.00;92.30;;;;;;5091867;28;20128;-61
2023/07/23 10:54:05;;;;;;;5.72;3.42;;;21.80;92.20;;;;;;5093304;28;20044;-61
2023/07/23 10:56:40;;;;;;;5.57;3.60;;;22.10;92.20;;;;;;5088672;28;20048;-62
2023/07/23 10:59:07;;;;;;;5.47;3.40;;;22.00;92.30;;;;;;5090866;28;20064;-68
2023/07/23 11:01:38;;;;;;;4.75;3.38;;;22.10;92.30;;;;;;5092486;28;20529;-69
2023/07/23 11:04:27;;;;;;;6.55;3.42;;;21.80;92.20;;;;;;5091583;28;20105;-62
2023/07/23 11:06:56;;;;;;;5.82;3.35;;;22.10;92.50;;;;;;5086099;28;20040;-65
2023/07/23 11:09:30;;;;;;;4.95;2.97;;;22.00;92.30;;;;;;5091157;28;20047;-62
2023/07/23 11:11:56;;;;;;;6.32;3.28;;;21.80;92.20;;;;;;5085317;28;20457;-68
2023/07/23 11:14:23;;;;;;;5.97;3.58;;;22.00;92.20;;;;;;5091797;28;20118;-67
2023/07/23 11:16:51;;;;;;;6.38;3.28;;;21.90;92.20;;;;;;5092196;28;20097;-65
2023/07/23 11:19:18;;;;;;;5.32;3.17;;;22.00;92.20;;;;;;5090448;28;20040;-68
2023/07/23 11:22:00;;;;;;;4.90;3.00;;;22.00;92.30;;;;;;5090865;28;20130;-61
2023/07/23 11:24:27;;;;;;;4.57;3.10;;;21.90;92.30;;;;;;5088563;28;20058;-61
2023/07/23 11:26:57;;;;;;;5.30;3.10;;;22.10;92.30;;;;;;5091781;28;20338;-62
2023/07/23 11:29:24;;;;;;;4.72;3.13;;;;;;;;;;5090705;28;20097;-64
2023/07/23 11:31:51;;;;;;;6.03;3.42;;;22.10;92.30;;;;;;5091551;28;20123;-64
2023/07/23 11:34:17;;;;;;;5.18;3.40;;;22.10;92.30;;;;;;5085010;28;20040;-64
2023/07/23 11:36:42;;;;;;;4.95;3.05;;;22.00;92.20;;;;;;5081876;28;20050;-60
2023/07/23 11:39:09;;;;;;;5.07;3.25;;;21.90;92.30;;;;;;5089898;28;20050;-64
2023/07/23 11:41:39;;;;;;;5.57;3.60;;;22.10;92.30;;;;;;5086284;28;20048;-61
2023/07/23 11:44:05;;;;;;;6.47;3.58;;;;;;;;;;5090800;28;20036;-64
2023/07/23 11:46:32;;;;;;;6.03;3.40;;;21.80;90.40;;;;;;5092351;28;20058;-68
2023/07/23 11:49:00;;;;;;;5.93;3.35;;;22.00;92.40;;;;;;5092137;28;20390;-66
2023/07/23 11:51:28;;;;;;;66.10;7.20;;;22.10;92.50;;;;;;5092018;28;20591;-65
2023/07/23 11:54:08;;;;;;;12.25;3.67;;;21.90;92.40;;;;;;5088750;28;20435;-65
2023/07/23 11:56:35;;;;;;;6.88;3.40;;;22.20;92.50;;;;;;5090821;28;20078;-60
2023/07/23 11:59:03;;;;;;;8.05;3.60;;;22.10;92.40;;;;;;5084848;28;20887;-61
2023/07/23 12:01:29;;;;;;;6.15;3.47;;;22.10;92.40;;;;;;5090324;28;20383;-61
2023/07/23 12:03:57;;;;;;;5.72;3.58;;;22.10;92.40;;;;;;5087687;28;20057;-61
2023/07/23 12:06:23;;;;;;;7.15;3.92;;;22.00;91.40;;;;;;5091095;28;20048;-61
2023/07/23 12:08:49;;;;;;;10.75;3.60;;;22.00;92.30;;;;;;5087562;28;20102;-64
2023/07/23 12:11:15;;;;;;;6.22;3.50;;;22.10;92.40;;;;;;5090471;28;20044;-62
2023/07/23 12:13:46;;;;;;;7.13;3.63;;;22.00;91.90;;;;;;5091359;28;20496;-62
2023/07/23 12:16:32;;;;;;;8.63;3.45;;;22.20;92.50;;;;;;5084575;28;20048;-62
2023/07/23 12:19:12;;;;;;;7.10;3.70;;;22.20;92.40;;;;;;5088024;28;20043;-63
2023/07/23 12:21:39;;;;;;;6.13;3.67;;;22.30;92.40;;;;;;5091697;28;20123;-63
2023/07/23 12:24:22;;;;;;;6.63;3.83;;;22.10;92.30;;;;;;5090152;28;20084;-61
2023/07/23 12:26:52;;;;;;;6.78;3.63;;;22.30;91.30;;;;;;5087683;28;20052;-61
2023/07/23 12:29:18;;;;;;;5.30;3.40;;;22.20;92.50;;;;;;5090259;28;20121;-61
2023/07/23 12:31:46;;;;;;;6.57;3.70;;;22.20;91.30;;;;;;5085619;28;20036;-61
2023/07/23 12:34:13;;;;;;;5.70;3.40;;;22.00;92.40;;;;;;5088744;28;20044;-62
2023/07/23 12:36:38;;;;;;;6.40;3.58;;;22.10;92.50;;;;;;5091816;28;20101;-62
2023/07/23 12:39:05;;;;;;;5.30;3.35;;;22.10;92.50;;;;;;5090117;28;20048;-61
2023/07/23 12:41:31;;;;;;;5.93;3.58;;;22.10;92.50;;;;;;5090755;28;20064;-61
2023/07/23 12:43:57;;;;;;;5.60;3.22;;;22.10;92.10;;;;;;5090559;28;20126;-62
2023/07/23 12:46:23;;;;;;;6.63;3.50;;;22.10;91.90;;;;;;5090288;28;20135;-64
2023/07/23 12:48:49;;;;;;;5.50;3.65;;;22.00;92.50;;;;;;5088583;28;20047;-63
2023/07/23 12:51:16;;;;;;;7.82;4.07;;;22.10;92.60;;;;;;5094720;28;20044;-64
2023/07/23 12:53:42;;;;;;;5.57;3.58;;;22.00;92.70;;;;;;5095921;28;20105;-63
2023/07/23 12:56:07;;;;;;;5.03;3.42;;;22.10;92.60;;;;;;5088478;28;20185;-63
2023/07/23 12:58:33;;;;;;;6.18;3.58;;;22.20;93.00;;;;;;5093708;28;20048;-61
2023/07/23 13:01:00;;;;;;;6.68;3.65;;;22.50;91.60;;;;;;5090944;28;20055;-60